Terminal Aerodrome Forecast
Issued by NWS

Home | Current Version | Previous Version | Text Only | Print | Product List | Glossary On
Versions: 1 2 3 4 5 6 7 8 9 10 11 12 13 14 15 16 17 18 19 20 21 22 23 24 25 26 27 28 29 30 31 32 33 34 35 36 37 38 39 40 41 42 43 44 45 46 47 48 49 50
361
FTUS45 KBOU 231532 AAA
TAFBJC
TAF AMD
KBJC 231532Z 2316/2412 06010KT P6SM VCSH SCT006 OVC015
      TEMPO 2316/2318 3SM -FZDZSN BR BKN006
     FM231800 04010KT 3SM -SHSN BR BKN008 OVC015
      TEMPO 2318/2320 1SM -SHSN BR OVC004
     FM232000 35016G24KT P6SM BKN020 OVC040
      TEMPO 2321/2401 3SM -SHSN OVC012
     FM240100 35014G22KT 3SM -SN BR SCT008 BKN012 OVC020
      TEMPO 2401/2405 1SM -SN BR BKN005
     FM240900 32010KT P6SM SCT008 OVC015=

USA.gov is the U.S. government's official web portal to all federal, state and local government web resources and services.